Главная страница
METAR-TAF:

METAR-TAF

Аэропорты :

Linden, Нью-Джерси, США

широта: 40-37-03N, долгота: 074-14-40W, высота над уровнем моря: 7 м

Текущие метеонаблюдения

Эта сводка был подготовлена 27 минут назад, в 21:15 UTC
Ветер 8 Узел от северо-северо-восточный
Температура 18°C
Влажность 24%
Давление 1026 hPa
Видимость: 16.1 км
ясное небо

METAR: KLDJ 192115Z AUTO 02008KT 10SM CLR 18/M03 A3031 RMK AO2 T01781026

Время: 17:42 (21:42 UTC)


TAF: отсутствует

Метеонаблюдения и прогнозы для более 4000 аэропортов (сводки METAR и TAF).

Имеющиеся станции представлены на карте желтыми и красными точками.

Чтобы увидеть название станции, наведите на нее мышь.

Затем щелкните, чтобы увидеть метеонаблюдения и метеопрогнозы.

Управление картой: чтобы увеличить масштаб, щелкните зеленые кнопки с черным крестиком; чтобы уменьшить масштаб, щелкните зеленую кнопку с тире; для просмотра соседних карт щелкайте зеленые стрелки.


METAR-TAF: